sensor_id;sensor_type;location;lat;lon;timestamp;temperature;humidity
36990;DHT22;22898;52.102;5.776;2023-03-26T00:00:46;15.20;99.90
36990;DHT22;22898;52.102;5.776;2023-03-26T00:03:17;15.10;99.90
36990;DHT22;22898;52.102;5.776;2023-03-26T00:05:43;15.00;99.90
36990;DHT22;22898;52.102;5.776;2023-03-26T00:08:10;14.70;99.90
36990;DHT22;22898;52.102;5.776;2023-03-26T00:10:37;14.90;99.90
36990;DHT22;22898;52.102;5.776;2023-03-26T00:13:05;14.70;99.90
36990;DHT22;22898;52.102;5.776;2023-03-26T00:15:31;14.60;99.90
36990;DHT22;22898;52.102;5.776;2023-03-26T00:17:57;14.50;99.90
36990;DHT22;22898;52.102;5.776;2023-03-26T00:20:25;14.20;99.90
36990;DHT22;22898;52.102;5.776;2023-03-26T00:22:52;14.10;99.90
36990;DHT22;22898;52.102;5.776;2023-03-26T00:25:18;14.50;99.90
36990;DHT22;22898;52.102;5.776;2023-03-26T00:27:45;14.50;99.90
36990;DHT22;22898;52.102;5.776;2023-03-26T00:30:11;14.80;99.90
36990;DHT22;22898;52.102;5.776;2023-03-26T00:32:37;15.20;99.90
36990;DHT22;22898;52.102;5.776;2023-03-26T00:35:03;15.60;99.90
36990;DHT22;22898;52.102;5.776;2023-03-26T00:37:29;15.80;99.90
36990;DHT22;22898;52.102;5.776;2023-03-26T00:39:56;16.10;99.90
36990;DHT22;22898;52.102;5.776;2023-03-26T00:42:24;16.20;99.90
36990;DHT22;22898;52.102;5.776;2023-03-26T00:44:50;16.40;99.90
36990;DHT22;22898;52.102;5.776;2023-03-26T00:47:22;16.50;99.90
36990;DHT22;22898;52.102;5.776;2023-03-26T00:49:48;16.60;99.90
36990;DHT22;22898;52.102;5.776;2023-03-26T00:52:15;16.60;99.90
36990;DHT22;22898;52.102;5.776;2023-03-26T00:54:44;16.50;99.90
36990;DHT22;22898;52.102;5.776;2023-03-26T00:57:10;16.30;99.90
36990;DHT22;22898;52.102;5.776;2023-03-26T00:59:38;16.10;99.90
36990;DHT22;22898;52.102;5.776;2023-03-26T01:02:03;16.10;99.90
36990;DHT22;22898;52.102;5.776;2023-03-26T01:04:32;16.20;99.90
36990;DHT22;22898;52.102;5.776;2023-03-26T01:07:16;16.30;99.90
36990;DHT22;22898;52.102;5.776;2023-03-26T01:09:46;16.40;99.90
36990;DHT22;22898;52.102;5.776;2023-03-26T01:12:16;16.50;99.90
36990;DHT22;22898;52.102;5.776;2023-03-26T01:14:44;16.60;99.90
36990;DHT22;22898;52.102;5.776;2023-03-26T01:17:11;16.70;99.90
36990;DHT22;22898;52.102;5.776;2023-03-26T01:20:16;16.60;99.90
36990;DHT22;22898;52.102;5.776;2023-03-26T01:22:50;16.60;99.90
36990;DHT22;22898;52.102;5.776;2023-03-26T01:25:18;16.70;99.90
36990;DHT22;22898;52.102;5.776;2023-03-26T01:27:52;16.70;99.90
36990;DHT22;22898;52.102;5.776;2023-03-26T01:33:04;16.70;99.90
36990;DHT22;22898;52.102;5.776;2023-03-26T01:35:37;16.70;99.90
36990;DHT22;22898;52.102;5.776;2023-03-26T01:38:25;16.60;99.90
36990;DHT22;22898;52.102;5.776;2023-03-26T01:41:05;16.70;99.90
36990;DHT22;22898;52.102;5.776;2023-03-26T01:43:36;16.60;99.90
36990;DHT22;22898;52.102;5.776;2023-03-26T01:46:05;16.50;99.90
36990;DHT22;22898;52.102;5.776;2023-03-26T01:48:37;16.60;99.90
36990;DHT22;22898;52.102;5.776;2023-03-26T01:51:04;16.70;99.90
36990;DHT22;22898;52.102;5.776;2023-03-26T01:53:32;16.60;99.90
36990;DHT22;22898;52.102;5.776;2023-03-26T01:56:13;16.60;99.90
36990;DHT22;22898;52.102;5.776;2023-03-26T01:59:12;16.60;99.90
36990;DHT22;22898;52.102;5.776;2023-03-26T02:02:07;16.70;99.90
36990;DHT22;22898;52.102;5.776;2023-03-26T02:07:44;16.60;99.90
36990;DHT22;22898;52.102;5.776;2023-03-26T02:10:39;16.60;99.90
36990;DHT22;22898;52.102;5.776;2023-03-26T02:13:06;16.60;99.90
36990;DHT22;22898;52.102;5.776;2023-03-26T02:15:32;16.70;99.90
36990;DHT22;22898;52.102;5.776;2023-03-26T02:17:57;16.70;99.90
36990;DHT22;22898;52.102;5.776;2023-03-26T02:20:24;16.60;99.90
36990;DHT22;22898;52.102;5.776;2023-03-26T02:22:54;16.70;99.90
36990;DHT22;22898;52.102;5.776;2023-03-26T02:25:20;16.80;99.90
36990;DHT22;22898;52.102;5.776;2023-03-26T02:27:47;16.90;99.90
36990;DHT22;22898;52.102;5.776;2023-03-26T02:30:17;16.90;99.90
36990;DHT22;22898;52.102;5.776;2023-03-26T02:32:43;16.90;99.90
36990;DHT22;22898;52.102;5.776;2023-03-26T02:35:10;16.80;99.90
36990;DHT22;22898;52.102;5.776;2023-03-26T02:37:35;16.90;99.90
36990;DHT22;22898;52.102;5.776;2023-03-26T02:40:02;16.90;99.90
36990;DHT22;22898;52.102;5.776;2023-03-26T02:42:30;17.00;99.60
36990;DHT22;22898;52.102;5.776;2023-03-26T02:44:55;16.90;99.70
36990;DHT22;22898;52.102;5.776;2023-03-26T02:47:21;16.80;99.90
36990;DHT22;22898;52.102;5.776;2023-03-26T02:49:46;16.90;99.80
36990;DHT22;22898;52.102;5.776;2023-03-26T02:52:12;17.00;99.80
36990;DHT22;22898;52.102;5.776;2023-03-26T02:54:41;16.90;99.90
36990;DHT22;22898;52.102;5.776;2023-03-26T02:57:06;16.90;99.90
36990;DHT22;22898;52.102;5.776;2023-03-26T02:59:32;16.80;99.90
36990;DHT22;22898;52.102;5.776;2023-03-26T03:01:57;16.80;99.90
36990;DHT22;22898;52.102;5.776;2023-03-26T03:04:23;16.70;99.90
36990;DHT22;22898;52.102;5.776;2023-03-26T03:06:49;16.60;99.90
36990;DHT22;22898;52.102;5.776;2023-03-26T03:09:17;16.60;99.90
36990;DHT22;22898;52.102;5.776;2023-03-26T03:11:43;16.60;99.90
36990;DHT22;22898;52.102;5.776;2023-03-26T03:14:09;16.70;99.90
36990;DHT22;22898;52.102;5.776;2023-03-26T03:16:34;16.70;99.90
36990;DHT22;22898;52.102;5.776;2023-03-26T03:19:00;16.80;99.90
36990;DHT22;22898;52.102;5.776;2023-03-26T03:21:27;16.90;99.90
36990;DHT22;22898;52.102;5.776;2023-03-26T03:23:54;16.90;99.90
36990;DHT22;22898;52.102;5.776;2023-03-26T03:26:21;16.90;99.90
36990;DHT22;22898;52.102;5.776;2023-03-26T03:28:50;16.90;99.90
36990;DHT22;22898;52.102;5.776;2023-03-26T03:31:16;16.90;99.90
36990;DHT22;22898;52.102;5.776;2023-03-26T03:33:43;16.90;99.90
36990;DHT22;22898;52.102;5.776;2023-03-26T03:36:11;16.80;99.90
36990;DHT22;22898;52.102;5.776;2023-03-26T03:38:38;16.80;99.90
36990;DHT22;22898;52.102;5.776;2023-03-26T03:41:05;16.70;99.90
36990;DHT22;22898;52.102;5.776;2023-03-26T03:43:31;16.80;99.90
36990;DHT22;22898;52.102;5.776;2023-03-26T03:45:58;16.90;99.90
36990;DHT22;22898;52.102;5.776;2023-03-26T03:48:24;17.00;99.90
36990;DHT22;22898;52.102;5.776;2023-03-26T03:50:50;17.10;99.90
36990;DHT22;22898;52.102;5.776;2023-03-26T03:53:15;17.10;99.90
36990;DHT22;22898;52.102;5.776;2023-03-26T03:55:43;17.20;99.90
36990;DHT22;22898;52.102;5.776;2023-03-26T03:58:17;17.30;99.60
36990;DHT22;22898;52.102;5.776;2023-03-26T04:00:47;17.10;99.80
36990;DHT22;22898;52.102;5.776;2023-03-26T04:03:13;17.10;99.90
36990;DHT22;22898;52.102;5.776;2023-03-26T04:05:38;17.00;99.80
36990;DHT22;22898;52.102;5.776;2023-03-26T04:08:05;16.90;99.90
36990;DHT22;22898;52.102;5.776;2023-03-26T04:10:31;16.90;99.90
36990;DHT22;22898;52.102;5.776;2023-03-26T04:12:57;16.80;99.90
36990;DHT22;22898;52.102;5.776;2023-03-26T04:15:22;16.80;99.90
36990;DHT22;22898;52.102;5.776;2023-03-26T04:17:48;16.90;99.90
36990;DHT22;22898;52.102;5.776;2023-03-26T04:20:13;16.90;99.90
36990;DHT22;22898;52.102;5.776;2023-03-26T04:22:42;17.10;99.90
36990;DHT22;22898;52.102;5.776;2023-03-26T04:25:09;17.10;99.80
36990;DHT22;22898;52.102;5.776;2023-03-26T04:27:35;17.10;99.90
36990;DHT22;22898;52.102;5.776;2023-03-26T04:30:01;17.20;99.80
36990;DHT22;22898;52.102;5.776;2023-03-26T04:32:29;17.20;99.70
36990;DHT22;22898;52.102;5.776;2023-03-26T04:34:59;17.30;99.60
36990;DHT22;22898;52.102;5.776;2023-03-26T04:37:28;17.30;99.50
36990;DHT22;22898;52.102;5.776;2023-03-26T04:40:00;17.40;99.50
36990;DHT22;22898;52.102;5.776;2023-03-26T04:42:27;17.40;99.40
36990;DHT22;22898;52.102;5.776;2023-03-26T04:44:53;17.50;99.40
36990;DHT22;22898;52.102;5.776;2023-03-26T04:47:18;17.50;99.30
36990;DHT22;22898;52.102;5.776;2023-03-26T04:49:45;17.50;99.30
36990;DHT22;22898;52.102;5.776;2023-03-26T04:52:14;17.50;99.40
36990;DHT22;22898;52.102;5.776;2023-03-26T04:54:42;17.50;99.30
36990;DHT22;22898;52.102;5.776;2023-03-26T04:57:17;17.50;99.30
36990;DHT22;22898;52.102;5.776;2023-03-26T04:59:44;17.50;99.20
36990;DHT22;22898;52.102;5.776;2023-03-26T05:02:10;17.50;99.20
36990;DHT22;22898;52.102;5.776;2023-03-26T05:04:37;17.50;99.30
36990;DHT22;22898;52.102;5.776;2023-03-26T05:07:09;17.50;99.30
36990;DHT22;22898;52.102;5.776;2023-03-26T05:09:35;17.60;98.90
36990;DHT22;22898;52.102;5.776;2023-03-26T05:12:01;17.60;98.90
36990;DHT22;22898;52.102;5.776;2023-03-26T05:14:26;17.50;99.00
36990;DHT22;22898;52.102;5.776;2023-03-26T05:16:52;17.40;99.00
36990;DHT22;22898;52.102;5.776;2023-03-26T05:19:18;17.30;99.10
36990;DHT22;22898;52.102;5.776;2023-03-26T05:21:43;17.20;99.30
36990;DHT22;22898;52.102;5.776;2023-03-26T05:24:10;17.20;99.30
36990;DHT22;22898;52.102;5.776;2023-03-26T05:26:35;17.10;99.50
36990;DHT22;22898;52.102;5.776;2023-03-26T05:29:02;17.00;99.30
36990;DHT22;22898;52.102;5.776;2023-03-26T05:31:29;16.90;99.30
36990;DHT22;22898;52.102;5.776;2023-03-26T05:33:56;16.80;99.40
36990;DHT22;22898;52.102;5.776;2023-03-26T05:36:22;16.70;99.80
36990;DHT22;22898;52.102;5.776;2023-03-26T05:38:48;16.70;99.90
36990;DHT22;22898;52.102;5.776;2023-03-26T05:41:15;16.70;99.90
36990;DHT22;22898;52.102;5.776;2023-03-26T05:43:41;16.60;99.90
36990;DHT22;22898;52.102;5.776;2023-03-26T05:46:07;16.60;99.90
36990;DHT22;22898;52.102;5.776;2023-03-26T05:48:33;16.70;99.90
36990;DHT22;22898;52.102;5.776;2023-03-26T05:50:59;16.80;99.90
36990;DHT22;22898;52.102;5.776;2023-03-26T05:53:25;16.90;99.90
36990;DHT22;22898;52.102;5.776;2023-03-26T05:55:52;17.00;99.50
36990;DHT22;22898;52.102;5.776;2023-03-26T05:58:22;16.80;99.90
36990;DHT22;22898;52.102;5.776;2023-03-26T06:00:48;16.90;99.80
36990;DHT22;22898;52.102;5.776;2023-03-26T06:03:23;17.00;99.80
36990;DHT22;22898;52.102;5.776;2023-03-26T06:05:49;17.00;99.70
36990;DHT22;22898;52.102;5.776;2023-03-26T06:08:14;16.80;99.80
36990;DHT22;22898;52.102;5.776;2023-03-26T06:10:40;16.70;99.80
36990;DHT22;22898;52.102;5.776;2023-03-26T06:13:06;16.70;99.80
36990;DHT22;22898;52.102;5.776;2023-03-26T06:15:31;16.50;99.90
36990;DHT22;22898;52.102;5.776;2023-03-26T06:17:57;16.20;99.90
36990;DHT22;22898;52.102;5.776;2023-03-26T06:20:22;16.00;99.90
36990;DHT22;22898;52.102;5.776;2023-03-26T06:22:48;15.80;99.90
36990;DHT22;22898;52.102;5.776;2023-03-26T06:25:14;15.60;99.90
36990;DHT22;22898;52.102;5.776;2023-03-26T06:27:39;15.80;99.90
36990;DHT22;22898;52.102;5.776;2023-03-26T06:30:06;15.80;99.90
36990;DHT22;22898;52.102;5.776;2023-03-26T06:32:31;16.00;99.90
36990;DHT22;22898;52.102;5.776;2023-03-26T06:34:57;16.10;99.90
36990;DHT22;22898;52.102;5.776;2023-03-26T06:37:22;16.10;99.90
36990;DHT22;22898;52.102;5.776;2023-03-26T06:39:48;16.30;99.90
36990;DHT22;22898;52.102;5.776;2023-03-26T06:42:13;16.40;99.90
36990;DHT22;22898;52.102;5.776;2023-03-26T06:44:39;16.50;99.90
36990;DHT22;22898;52.102;5.776;2023-03-26T06:47:05;16.70;99.90
36990;DHT22;22898;52.102;5.776;2023-03-26T06:49:30;16.80;99.90
36990;DHT22;22898;52.102;5.776;2023-03-26T06:51:56;16.90;99.90
36990;DHT22;22898;52.102;5.776;2023-03-26T06:54:22;16.70;99.90
36990;DHT22;22898;52.102;5.776;2023-03-26T06:56:47;16.40;99.90
36990;DHT22;22898;52.102;5.776;2023-03-26T06:59:13;16.20;99.90
36990;DHT22;22898;52.102;5.776;2023-03-26T07:01:39;16.10;99.90
36990;DHT22;22898;52.102;5.776;2023-03-26T07:04:04;16.10;99.90
36990;DHT22;22898;52.102;5.776;2023-03-26T07:06:31;16.30;99.90
36990;DHT22;22898;52.102;5.776;2023-03-26T07:08:56;16.40;99.90
36990;DHT22;22898;52.102;5.776;2023-03-26T07:11:22;16.30;99.90
36990;DHT22;22898;52.102;5.776;2023-03-26T07:13:50;16.30;99.90
36990;DHT22;22898;52.102;5.776;2023-03-26T07:16:15;16.40;99.90
36990;DHT22;22898;52.102;5.776;2023-03-26T07:18:41;16.30;99.90
36990;DHT22;22898;52.102;5.776;2023-03-26T07:21:07;16.50;99.90
36990;DHT22;22898;52.102;5.776;2023-03-26T07:23:33;16.70;99.90
36990;DHT22;22898;52.102;5.776;2023-03-26T07:26:08;16.90;99.90
36990;DHT22;22898;52.102;5.776;2023-03-26T07:28:42;16.90;99.80
36990;DHT22;22898;52.102;5.776;2023-03-26T07:37:42;16.40;99.90
36990;DHT22;22898;52.102;5.776;2023-03-26T07:40:30;16.40;99.90
36990;DHT22;22898;52.102;5.776;2023-03-26T07:45:45;16.70;99.90
36990;DHT22;22898;52.102;5.776;2023-03-26T07:48:18;16.40;99.90
36990;DHT22;22898;52.102;5.776;2023-03-26T07:50:46;16.40;99.90
36990;DHT22;22898;52.102;5.776;2023-03-26T07:53:12;16.10;99.90
36990;DHT22;22898;52.102;5.776;2023-03-26T08:06:38;16.40;99.90
36990;DHT22;22898;52.102;5.776;2023-03-26T08:09:24;16.50;99.90
36990;DHT22;22898;52.102;5.776;2023-03-26T08:11:56;16.40;99.80
36990;DHT22;22898;52.102;5.776;2023-03-26T08:22:38;15.70;99.90
36990;DHT22;22898;52.102;5.776;2023-03-26T08:27:56;16.10;99.90
36990;DHT22;22898;52.102;5.776;2023-03-26T08:30:26;16.20;99.90
36990;DHT22;22898;52.102;5.776;2023-03-26T08:33:01;16.10;99.90
36990;DHT22;22898;52.102;5.776;2023-03-26T08:35:29;16.20;99.90
36990;DHT22;22898;52.102;5.776;2023-03-26T08:37:55;16.10;99.90
36990;DHT22;22898;52.102;5.776;2023-03-26T08:45:50;16.30;99.90
36990;DHT22;22898;52.102;5.776;2023-03-26T08:48:49;16.30;99.90
36990;DHT22;22898;52.102;5.776;2023-03-26T08:51:51;16.30;99.90
36990;DHT22;22898;52.102;5.776;2023-03-26T08:57:20;16.20;99.90
36990;DHT22;22898;52.102;5.776;2023-03-26T09:00:00;16.20;99.90
36990;DHT22;22898;52.102;5.776;2023-03-26T09:02:58;15.90;99.90
36990;DHT22;22898;52.102;5.776;2023-03-26T09:05:53;15.90;99.90
36990;DHT22;22898;52.102;5.776;2023-03-26T09:13:47;16.70;99.90
36990;DHT22;22898;52.102;5.776;2023-03-26T09:16:21;16.80;99.90
36990;DHT22;22898;52.102;5.776;2023-03-26T09:19:29;17.10;99.90
36990;DHT22;22898;52.102;5.776;2023-03-26T09:28:17;16.20;99.90
36990;DHT22;22898;52.102;5.776;2023-03-26T09:36:19;15.80;99.90
36990;DHT22;22898;52.102;5.776;2023-03-26T09:39:08;15.60;99.90
36990;DHT22;22898;52.102;5.776;2023-03-26T09:41:41;15.30;99.90
36990;DHT22;22898;52.102;5.776;2023-03-26T09:50:18;15.60;99.90
36990;DHT22;22898;52.102;5.776;2023-03-26T09:53:23;15.10;99.90
36990;DHT22;22898;52.102;5.776;2023-03-26T09:56:20;14.60;99.90
36990;DHT22;22898;52.102;5.776;2023-03-26T09:59:28;14.50;99.90
36990;DHT22;22898;52.102;5.776;2023-03-26T10:13:29;15.30;99.90
36990;DHT22;22898;52.102;5.776;2023-03-26T10:30:45;14.90;99.90
36990;DHT22;22898;52.102;5.776;2023-03-26T10:36:12;14.80;99.90
36990;DHT22;22898;52.102;5.776;2023-03-26T10:41:27;14.40;99.90
36990;DHT22;22898;52.102;5.776;2023-03-26T10:44:20;14.40;99.90
36990;DHT22;22898;52.102;5.776;2023-03-26T10:46:51;14.50;99.90
36990;DHT22;22898;52.102;5.776;2023-03-26T10:52:17;14.40;99.90
36990;DHT22;22898;52.102;5.776;2023-03-26T10:54:58;14.50;99.90
36990;DHT22;22898;52.102;5.776;2023-03-26T11:00:15;14.90;99.90
36990;DHT22;22898;52.102;5.776;2023-03-26T11:11:27;14.20;99.90
36990;DHT22;22898;52.102;5.776;2023-03-26T11:19:34;14.30;99.90
36990;DHT22;22898;52.102;5.776;2023-03-26T11:30:52;13.20;99.90
36990;DHT22;22898;52.102;5.776;2023-03-26T11:33:22;13.10;99.90
36990;DHT22;22898;52.102;5.776;2023-03-26T11:35:55;13.40;99.90
36990;DHT22;22898;52.102;5.776;2023-03-26T11:38:28;13.60;99.90
36990;DHT22;22898;52.102;5.776;2023-03-26T11:40:59;13.90;99.90
36990;DHT22;22898;52.102;5.776;2023-03-26T11:43:30;14.20;99.90
36990;DHT22;22898;52.102;5.776;2023-03-26T11:45:58;14.40;99.90
36990;DHT22;22898;52.102;5.776;2023-03-26T11:48:31;14.20;99.90
36990;DHT22;22898;52.102;5.776;2023-03-26T11:51:04;14.10;99.90
36990;DHT22;22898;52.102;5.776;2023-03-26T11:53:33;13.60;99.90
36990;DHT22;22898;52.102;5.776;2023-03-26T11:59:02;13.40;99.90
36990;DHT22;22898;52.102;5.776;2023-03-26T12:01:49;13.30;99.90
36990;DHT22;22898;52.102;5.776;2023-03-26T12:04:17;13.20;99.90
36990;DHT22;22898;52.102;5.776;2023-03-26T12:07:36;13.30;99.90
36990;DHT22;22898;52.102;5.776;2023-03-26T12:09:36;13.40;99.90
36990;DHT22;22898;52.102;5.776;2023-03-26T12:12:03;13.00;99.90
36990;DHT22;22898;52.102;5.776;2023-03-26T12:14:33;13.10;99.90
36990;DHT22;22898;52.102;5.776;2023-03-26T12:17:06;13.30;99.90
36990;DHT22;22898;52.102;5.776;2023-03-26T12:19:40;13.50;99.90
36990;DHT22;22898;52.102;5.776;2023-03-26T12:22:25;14.00;99.90
36990;DHT22;22898;52.102;5.776;2023-03-26T12:25:02;13.90;99.90
36990;DHT22;22898;52.102;5.776;2023-03-26T12:27:28;14.10;99.90
36990;DHT22;22898;52.102;5.776;2023-03-26T12:29:59;14.10;99.90
36990;DHT22;22898;52.102;5.776;2023-03-26T12:32:37;14.10;99.90
36990;DHT22;22898;52.102;5.776;2023-03-26T12:35:05;14.40;99.90
36990;DHT22;22898;52.102;5.776;2023-03-26T12:37:41;14.20;99.90
36990;DHT22;22898;52.102;5.776;2023-03-26T12:40:32;14.50;99.90
36990;DHT22;22898;52.102;5.776;2023-03-26T12:43:03;14.40;99.90
36990;DHT22;22898;52.102;5.776;2023-03-26T12:45:40;14.50;99.90
36990;DHT22;22898;52.102;5.776;2023-03-26T12:48:09;14.40;99.90
36990;DHT22;22898;52.102;5.776;2023-03-26T12:50:58;14.60;99.90
36990;DHT22;22898;52.102;5.776;2023-03-26T12:53:52;15.10;99.90
36990;DHT22;22898;52.102;5.776;2023-03-26T12:56:27;15.30;99.20
36990;DHT22;22898;52.102;5.776;2023-03-26T13:02:05;15.00;98.90
36990;DHT22;22898;52.102;5.776;2023-03-26T13:10:48;14.30;98.70
36990;DHT22;22898;52.102;5.776;2023-03-26T13:15:52;14.40;98.70
36990;DHT22;22898;52.102;5.776;2023-03-26T13:18:50;14.60;98.60
36990;DHT22;22898;52.102;5.776;2023-03-26T13:24:24;14.50;97.60
36990;DHT22;22898;52.102;5.776;2023-03-26T13:32:17;14.40;97.30
36990;DHT22;22898;52.102;5.776;2023-03-26T13:40:32;14.40;97.60
36990;DHT22;22898;52.102;5.776;2023-03-26T13:43:22;14.30;96.10
36990;DHT22;22898;52.102;5.776;2023-03-26T13:46:02;14.00;96.70
36990;DHT22;22898;52.102;5.776;2023-03-26T13:48:41;14.30;97.60
36990;DHT22;22898;52.102;5.776;2023-03-26T13:51:20;14.60;96.20
36990;DHT22;22898;52.102;5.776;2023-03-26T13:53:55;14.70;96.50
36990;DHT22;22898;52.102;5.776;2023-03-26T13:56:28;15.00;96.60
36990;DHT22;22898;52.102;5.776;2023-03-26T13:59:02;14.60;95.70
36990;DHT22;22898;52.102;5.776;2023-03-26T14:01:36;14.70;95.40
36990;DHT22;22898;52.102;5.776;2023-03-26T14:15:04;14.50;95.50
36990;DHT22;22898;52.102;5.776;2023-03-26T14:17:40;14.20;95.30
36990;DHT22;22898;52.102;5.776;2023-03-26T14:31:29;14.60;95.00
36990;DHT22;22898;52.102;5.776;2023-03-26T14:34:19;14.50;94.90
36990;DHT22;22898;52.102;5.776;2023-03-26T14:42:45;14.50;96.10
36990;DHT22;22898;52.102;5.776;2023-03-26T14:51:17;13.20;96.40
36990;DHT22;22898;52.102;5.776;2023-03-26T14:53:48;12.90;96.40
36990;DHT22;22898;52.102;5.776;2023-03-26T15:02:04;12.90;96.60
36990;DHT22;22898;52.102;5.776;2023-03-26T15:12:57;12.10;97.30
36990;DHT22;22898;52.102;5.776;2023-03-26T15:15:59;12.60;96.00
36990;DHT22;22898;52.102;5.776;2023-03-26T15:19:13;12.10;97.30
36990;DHT22;22898;52.102;5.776;2023-03-26T15:25:02;12.10;97.60
36990;DHT22;22898;52.102;5.776;2023-03-26T15:44:28;12.90;94.50
36990;DHT22;22898;52.102;5.776;2023-03-26T15:52:55;13.30;93.90
36990;DHT22;22898;52.102;5.776;2023-03-26T15:55:33;13.60;93.80
36990;DHT22;22898;52.102;5.776;2023-03-26T15:58:10;13.20;93.70
36990;DHT22;22898;52.102;5.776;2023-03-26T16:00:58;12.00;95.10
36990;DHT22;22898;52.102;5.776;2023-03-26T16:06:22;12.40;94.10
36990;DHT22;22898;52.102;5.776;2023-03-26T16:09:12;12.20;94.90
36990;DHT22;22898;52.102;5.776;2023-03-26T16:11:51;12.50;94.30
36990;DHT22;22898;52.102;5.776;2023-03-26T16:15:11;12.10;95.20
36990;DHT22;22898;52.102;5.776;2023-03-26T16:36:34;11.30;95.70
36990;DHT22;22898;52.102;5.776;2023-03-26T16:44:24;11.40;94.80
36990;DHT22;22898;52.102;5.776;2023-03-26T16:47:14;11.80;93.60
36990;DHT22;22898;52.102;5.776;2023-03-26T16:49:51;11.50;93.90
36990;DHT22;22898;52.102;5.776;2023-03-26T16:52:31;11.80;93.90
36990;DHT22;22898;52.102;5.776;2023-03-26T16:58:32;11.80;93.40
36990;DHT22;22898;52.102;5.776;2023-03-26T17:04:20;11.60;93.50
36990;DHT22;22898;52.102;5.776;2023-03-26T17:07:09;11.10;94.50
36990;DHT22;22898;52.102;5.776;2023-03-26T17:13:19;11.50;93.70
36990;DHT22;22898;52.102;5.776;2023-03-26T17:31:39;10.90;92.60
36990;DHT22;22898;52.102;5.776;2023-03-26T17:36:57;10.70;93.40
36990;DHT22;22898;52.102;5.776;2023-03-26T17:52:44;11.00;93.00
36990;DHT22;22898;52.102;5.776;2023-03-26T17:55:19;10.80;93.30
36990;DHT22;22898;52.102;5.776;2023-03-26T17:57:48;11.00;92.40
36990;DHT22;22898;52.102;5.776;2023-03-26T18:00:25;11.30;92.20
36990;DHT22;22898;52.102;5.776;2023-03-26T18:03:00;11.10;92.30
36990;DHT22;22898;52.102;5.776;2023-03-26T18:05:28;10.20;92.90
36990;DHT22;22898;52.102;5.776;2023-03-26T18:08:14;9.90;93.10
36990;DHT22;22898;52.102;5.776;2023-03-26T18:16:51;9.40;94.00
36990;DHT22;22898;52.102;5.776;2023-03-26T18:19:19;9.80;92.30
36990;DHT22;22898;52.102;5.776;2023-03-26T18:21:56;9.80;91.90
36990;DHT22;22898;52.102;5.776;2023-03-26T18:24:55;10.10;92.10
36990;DHT22;22898;52.102;5.776;2023-03-26T18:27:19;10.10;91.80
36990;DHT22;22898;52.102;5.776;2023-03-26T18:29:59;10.60;91.60
36990;DHT22;22898;52.102;5.776;2023-03-26T18:32:28;11.10;90.40
36990;DHT22;22898;52.102;5.776;2023-03-26T18:35:15;11.30;90.20
36990;DHT22;22898;52.102;5.776;2023-03-26T18:37:43;11.10;90.70
36990;DHT22;22898;52.102;5.776;2023-03-26T18:40:13;11.00;91.00
36990;DHT22;22898;52.102;5.776;2023-03-26T18:42:46;10.90;91.40
36990;DHT22;22898;52.102;5.776;2023-03-26T18:47:47;10.70;91.10
36990;DHT22;22898;52.102;5.776;2023-03-26T18:50:17;11.20;91.20
36990;DHT22;22898;52.102;5.776;2023-03-26T18:52:45;11.20;90.40
36990;DHT22;22898;52.102;5.776;2023-03-26T18:55:12;10.90;90.50
36990;DHT22;22898;52.102;5.776;2023-03-26T18:57:40;10.80;91.20
36990;DHT22;22898;52.102;5.776;2023-03-26T19:00:26;10.60;91.00
36990;DHT22;22898;52.102;5.776;2023-03-26T19:03:06;10.60;90.80
36990;DHT22;22898;52.102;5.776;2023-03-26T19:05:33;10.40;91.60
36990;DHT22;22898;52.102;5.776;2023-03-26T19:08:01;10.50;91.60
36990;DHT22;22898;52.102;5.776;2023-03-26T19:10:28;10.90;91.30
36990;DHT22;22898;52.102;5.776;2023-03-26T19:13:04;11.20;91.30
36990;DHT22;22898;52.102;5.776;2023-03-26T19:15:32;11.40;91.00
36990;DHT22;22898;52.102;5.776;2023-03-26T19:18:01;11.20;91.50
36990;DHT22;22898;52.102;5.776;2023-03-26T19:20:43;11.70;91.20
36990;DHT22;22898;52.102;5.776;2023-03-26T19:23:15;12.00;91.10
36990;DHT22;22898;52.102;5.776;2023-03-26T19:25:53;12.20;90.70
36990;DHT22;22898;52.102;5.776;2023-03-26T19:28:20;11.90;91.20
36990;DHT22;22898;52.102;5.776;2023-03-26T19:30:46;12.20;90.80
36990;DHT22;22898;52.102;5.776;2023-03-26T19:33:18;12.20;91.00
36990;DHT22;22898;52.102;5.776;2023-03-26T19:35:51;11.80;91.30
36990;DHT22;22898;52.102;5.776;2023-03-26T19:38:21;10.80;93.00
36990;DHT22;22898;52.102;5.776;2023-03-26T19:40:53;10.40;93.80
36990;DHT22;22898;52.102;5.776;2023-03-26T19:43:19;10.10;94.60
36990;DHT22;22898;52.102;5.776;2023-03-26T19:45:45;10.30;94.40
36990;DHT22;22898;52.102;5.776;2023-03-26T19:48:16;10.20;94.40
36990;DHT22;22898;52.102;5.776;2023-03-26T19:50:52;9.70;95.20
36990;DHT22;22898;52.102;5.776;2023-03-26T19:53:29;9.90;95.40
36990;DHT22;22898;52.102;5.776;2023-03-26T19:56:01;10.00;95.20
36990;DHT22;22898;52.102;5.776;2023-03-26T19:58:28;10.20;94.90
36990;DHT22;22898;52.102;5.776;2023-03-26T20:00:54;9.90;94.90
36990;DHT22;22898;52.102;5.776;2023-03-26T20:03:34;9.70;95.20
36990;DHT22;22898;52.102;5.776;2023-03-26T20:06:01;10.00;95.10
36990;DHT22;22898;52.102;5.776;2023-03-26T20:08:26;9.60;95.50
36990;DHT22;22898;52.102;5.776;2023-03-26T20:10:53;9.70;94.90
36990;DHT22;22898;52.102;5.776;2023-03-26T20:13:19;9.20;95.50
36990;DHT22;22898;52.102;5.776;2023-03-26T20:15:49;8.60;96.40
36990;DHT22;22898;52.102;5.776;2023-03-26T20:18:17;8.90;96.30
36990;DHT22;22898;52.102;5.776;2023-03-26T20:20:43;9.10;95.40
36990;DHT22;22898;52.102;5.776;2023-03-26T20:23:12;9.10;95.70
36990;DHT22;22898;52.102;5.776;2023-03-26T20:25:48;9.00;96.40
36990;DHT22;22898;52.102;5.776;2023-03-26T20:28:18;9.00;96.10
36990;DHT22;22898;52.102;5.776;2023-03-26T20:30:47;9.10;95.80
36990;DHT22;22898;52.102;5.776;2023-03-26T20:33:23;9.20;96.00
36990;DHT22;22898;52.102;5.776;2023-03-26T20:35:51;9.60;95.00
36990;DHT22;22898;52.102;5.776;2023-03-26T20:38:16;9.80;94.70
36990;DHT22;22898;52.102;5.776;2023-03-26T20:40:42;9.70;95.00
36990;DHT22;22898;52.102;5.776;2023-03-26T20:43:14;9.30;95.70
36990;DHT22;22898;52.102;5.776;2023-03-26T20:45:41;9.10;95.50
36990;DHT22;22898;52.102;5.776;2023-03-26T20:48:07;8.70;96.10
36990;DHT22;22898;52.102;5.776;2023-03-26T20:50:37;9.00;96.10
36990;DHT22;22898;52.102;5.776;2023-03-26T20:53:15;9.10;95.90
36990;DHT22;22898;52.102;5.776;2023-03-26T20:55:45;9.30;95.60
36990;DHT22;22898;52.102;5.776;2023-03-26T20:58:15;9.60;95.10
36990;DHT22;22898;52.102;5.776;2023-03-26T21:00:42;9.30;95.40
36990;DHT22;22898;52.102;5.776;2023-03-26T21:03:11;9.60;95.30
36990;DHT22;22898;52.102;5.776;2023-03-26T21:05:37;9.90;94.90
36990;DHT22;22898;52.102;5.776;2023-03-26T21:08:05;10.00;94.70
36990;DHT22;22898;52.102;5.776;2023-03-26T21:10:32;9.60;95.10